Terminal Aerodrome Forecast
Issued by NWS Upton, NY

Home | Current Version | Previous Version | Text Only | Print | Product List | Glossary On
Versions: 1 2 3 4 5 6 7 8 9 10 11 12 13 14 15 16 17 18 19 20 21 22 23 24 25 26 27 28 29 30
494
FTUS41 KOKX 240237 AAA
TAFLGA
TAF AMD
KLGA 240237Z 2403/2424 09010KT 6SM -SHRA SCT025
      TEMPO 2403/2406 BKN025
     FM240600 08013KT 4SM SHRA BR OVC015
     FM241000 06013KT 4SM SHRA OVC008
     FM241500 04014G20KT 6SM -SHRA OVC015
     FM241900 05010KT P6SM BKN025
     FM242200 04009KT P6SM BKN050=

USA.gov is the U.S. government's official web portal to all federal, state and local government web resources and services.